createdAt,value
2018-04-13T00:01:10.103Z,1010.51
2018-04-13T00:02:37.260Z,1010.50
2018-04-13T00:04:04.501Z,1010.49
2018-04-13T00:05:31.721Z,1010.48
2018-04-13T00:06:59.152Z,1010.47
2018-04-13T00:08:26.446Z,1010.50
2018-04-13T00:09:53.689Z,1010.50
2018-04-13T00:11:21.008Z,1010.52
2018-04-13T00:12:48.330Z,1010.49
2018-04-13T00:14:15.665Z,1010.48
2018-04-13T00:15:42.883Z,1010.50
2018-04-13T00:17:10.237Z,1010.49
2018-04-13T00:18:37.317Z,1010.48
2018-04-13T00:20:04.518Z,1010.48
2018-04-13T00:21:31.852Z,1010.47
2018-04-13T00:22:59.235Z,1010.44
2018-04-13T00:24:26.525Z,1010.41
2018-04-13T00:25:53.790Z,1010.41
2018-04-13T00:27:20.950Z,1010.43
2018-04-13T00:28:48.176Z,1010.41
2018-04-13T00:30:15.555Z,1010.41
2018-04-13T00:31:42.856Z,1010.39
2018-04-13T00:33:10.044Z,1010.40
2018-04-13T00:34:37.362Z,1010.38
2018-04-13T00:36:04.757Z,1010.36
2018-04-13T00:37:31.991Z,1010.34
2018-04-13T00:38:59.167Z,1010.34
2018-04-13T00:40:26.647Z,1010.33
2018-04-13T00:41:53.742Z,1010.32
2018-04-13T00:43:20.837Z,1010.30
2018-04-13T00:44:48.004Z,1010.30
2018-04-13T00:46:15.216Z,1010.31
2018-04-13T00:47:42.509Z,1010.30
2018-04-13T00:49:09.878Z,1010.27
2018-04-13T00:50:37.189Z,1010.26
2018-04-13T00:52:04.471Z,1010.28
2018-04-13T00:53:31.735Z,1010.26
2018-04-13T00:54:59.163Z,1010.26
2018-04-13T00:56:26.423Z,1010.23
2018-04-13T00:57:53.905Z,1010.23
2018-04-13T00:59:21.282Z,1010.22
2018-04-13T01:00:48.623Z,1010.24
2018-04-13T01:02:15.908Z,1010.23
2018-04-13T01:03:43.207Z,1010.26
2018-04-13T01:05:10.671Z,1010.28
2018-04-13T01:06:37.758Z,1010.27
2018-04-13T01:08:04.955Z,1010.27
2018-04-13T01:09:32.171Z,1010.28
2018-04-13T01:10:59.455Z,1010.28
2018-04-13T01:12:26.737Z,1010.21
2018-04-13T01:13:54.124Z,1010.21
2018-04-13T01:15:21.440Z,1010.22
2018-04-13T01:16:48.783Z,1010.23
2018-04-13T01:18:16.073Z,1010.22
2018-04-13T01:19:43.214Z,1010.21
2018-04-13T01:21:10.346Z,1010.20
2018-04-13T01:22:37.473Z,1010.20
2018-04-13T01:24:04.887Z,1010.20
2018-04-13T01:25:32.232Z,1010.19
2018-04-13T01:26:59.349Z,1010.19
2018-04-13T01:28:26.806Z,1010.15
2018-04-13T01:29:53.879Z,1010.13
2018-04-13T01:31:21.172Z,1010.12
2018-04-13T01:32:48.399Z,1010.10
2018-04-13T01:34:15.803Z,1010.11
2018-04-13T01:35:43.108Z,1010.10
2018-04-13T01:37:10.289Z,1010.11
2018-04-13T01:38:37.449Z,1010.10
2018-04-13T01:40:04.752Z,1010.08
2018-04-13T01:41:32.094Z,1010.06
2018-04-13T01:42:59.324Z,1010.07
2018-04-13T01:44:26.437Z,1010.00
2018-04-13T01:45:53.646Z,1009.98
2018-04-13T01:47:20.911Z,1009.95
2018-04-13T01:48:48.227Z,1009.96
2018-04-13T01:50:15.397Z,1009.96
2018-04-13T01:51:42.744Z,1009.96
2018-04-13T01:53:10.086Z,1009.95
2018-04-13T01:54:37.168Z,1009.96
2018-04-13T01:56:04.363Z,1009.94
2018-04-13T01:57:31.646Z,1009.92
2018-04-13T01:58:58.983Z,1009.88
2018-04-13T02:00:26.116Z,1009.89
2018-04-13T02:01:53.551Z,1009.88
2018-04-13T02:03:20.677Z,1009.93
2018-04-13T02:04:47.819Z,1009.89
2018-04-13T02:06:14.982Z,1009.91
2018-04-13T02:07:42.228Z,1009.93
2018-04-13T02:09:09.474Z,1009.90
2018-04-13T02:10:36.798Z,1009.89
2018-04-13T02:12:04.085Z,1009.88
2018-04-13T02:13:31.403Z,1009.82
2018-04-13T02:14:58.820Z,1009.84
2018-04-13T02:16:26.085Z,1009.88
2018-04-13T02:17:53.311Z,1009.87
2018-04-13T02:19:20.660Z,1009.87
2018-04-13T02:20:47.898Z,1009.88
2018-04-13T02:22:15.235Z,1009.84
2018-04-13T02:23:42.565Z,1009.86
2018-04-13T02:25:09.993Z,1009.85
2018-04-13T02:26:37.110Z,1009.82
2018-04-13T02:28:04.525Z,1009.81
2018-04-13T02:29:31.673Z,1009.79
2018-04-13T02:30:58.937Z,1009.75
2018-04-13T02:32:26.171Z,1009.77
2018-04-13T02:33:53.324Z,1009.75
2018-04-13T02:35:20.522Z,1009.71
2018-04-13T02:36:47.818Z,1009.70
2018-04-13T02:38:15.090Z,1009.71
2018-04-13T02:39:42.414Z,1009.71
2018-04-13T02:41:09.573Z,1009.74
2018-04-13T02:42:36.825Z,1009.76
2018-04-13T02:44:04.173Z,1009.76
2018-04-13T02:45:31.389Z,1009.76
2018-04-13T02:46:58.618Z,1009.77
2018-04-13T02:48:25.993Z,1009.75
2018-04-13T02:49:53.283Z,1009.75
2018-04-13T02:51:20.502Z,1009.74
2018-04-13T02:52:47.732Z,1009.72
2018-04-13T02:54:15.047Z,1009.74
2018-04-13T02:55:42.189Z,1009.72
2018-04-13T02:57:09.432Z,1009.71
2018-04-13T02:58:36.648Z,1009.70
2018-04-13T03:00:03.869Z,1009.73
2018-04-13T03:01:31.354Z,1009.72
2018-04-13T03:02:58.829Z,1009.71
2018-04-13T03:04:26.253Z,1009.74
2018-04-13T03:05:53.345Z,1009.74
2018-04-13T03:07:20.706Z,1009.78
2018-04-13T03:08:48.008Z,1009.80
2018-04-13T03:10:15.363Z,1009.81
2018-04-13T03:11:42.680Z,1009.80
2018-04-13T03:13:09.984Z,1009.79
2018-04-13T03:14:36.939Z,1009.78
2018-04-13T03:16:04.361Z,1009.73
2018-04-13T03:17:31.776Z,1009.76
2018-04-13T03:18:59.118Z,1009.79
2018-04-13T03:20:26.393Z,1009.79
2018-04-13T03:21:53.752Z,1009.81
2018-04-13T03:23:21.075Z,1009.82
2018-04-13T03:24:48.481Z,1009.80
2018-04-13T03:26:15.666Z,1009.79
2018-04-13T03:27:43.008Z,1009.80
2018-04-13T03:29:10.328Z,1009.79
2018-04-13T03:30:37.533Z,1009.80
2018-04-13T03:32:04.892Z,1009.77
2018-04-13T03:33:32.304Z,1009.75
2018-04-13T03:34:59.500Z,1009.76
2018-04-13T03:36:26.835Z,1009.78
2018-04-13T03:37:54.370Z,1009.81
2018-04-13T03:39:21.729Z,1009.81
2018-04-13T03:40:49.011Z,1009.79
2018-04-13T03:42:16.202Z,1009.75
2018-04-13T03:43:43.279Z,1009.78
2018-04-13T03:45:10.540Z,1009.78
2018-04-13T03:46:37.734Z,1009.73
2018-04-13T03:48:05.220Z,1009.72
2018-04-13T03:49:32.460Z,1009.73
2018-04-13T03:50:59.914Z,1009.73
2018-04-13T03:52:27.247Z,1009.73
2018-04-13T03:53:54.441Z,1009.75
2018-04-13T03:55:21.819Z,1009.75
2018-04-13T03:56:49.236Z,1009.70
2018-04-13T03:58:16.485Z,1009.73
2018-04-13T03:59:43.855Z,1009.79
2018-04-13T04:01:11.112Z,1009.86
2018-04-13T04:02:38.137Z,1009.84
2018-04-13T04:04:05.517Z,1009.85
2018-04-13T04:05:32.877Z,1009.85
2018-04-13T04:06:59.970Z,1009.89
2018-04-13T04:08:27.259Z,1009.87
2018-04-13T04:09:54.426Z,1009.87
2018-04-13T04:11:21.740Z,1009.89
2018-04-13T04:12:49.075Z,1009.88
2018-04-13T04:14:16.453Z,1009.88
2018-04-13T04:15:43.467Z,1009.89
2018-04-13T04:17:10.859Z,1009.89
2018-04-13T04:18:38.000Z,1009.86
2018-04-13T04:20:05.347Z,1009.88
2018-04-13T04:21:32.774Z,1009.88
2018-04-13T04:23:00.132Z,1009.86
2018-04-13T04:24:27.483Z,1009.85
2018-04-13T04:25:54.910Z,1009.91
2018-04-13T04:27:22.199Z,1009.91
2018-04-13T04:28:49.495Z,1009.85
2018-04-13T04:30:16.866Z,1009.83
2018-04-13T04:31:44.250Z,1009.87
2018-04-13T04:33:11.405Z,1009.90
2018-04-13T04:34:38.356Z,1009.87
2018-04-13T04:36:05.774Z,1009.84
2018-04-13T04:37:32.927Z,1009.82
2018-04-13T04:39:00.247Z,1009.86
2018-04-13T04:40:27.575Z,1009.92
2018-04-13T04:41:54.922Z,1009.95
2018-04-13T04:43:22.244Z,1009.97
2018-04-13T04:44:49.507Z,1009.96
2018-04-13T04:46:16.699Z,1010.02
2018-04-13T04:47:43.722Z,1010.05
2018-04-13T04:49:11.054Z,1010.07
2018-04-13T04:50:38.129Z,1010.11
2018-04-13T04:52:05.291Z,1010.14
2018-04-13T04:53:32.747Z,1010.21
2018-04-13T04:55:00.027Z,1010.21
2018-04-13T04:56:27.335Z,1010.21
2018-04-13T04:57:54.506Z,1010.25
2018-04-13T04:59:21.828Z,1010.26
2018-04-13T05:00:48.957Z,1010.36
2018-04-13T05:02:16.102Z,1010.49
2018-04-13T05:03:43.297Z,1010.56
2018-04-13T05:05:10.306Z,1010.57
2018-04-13T05:06:37.474Z,1010.49
2018-04-13T05:08:05.811Z,1010.39
2018-04-13T05:09:32.056Z,1010.41
2018-04-13T05:10:59.240Z,1010.40
2018-04-13T05:12:26.575Z,1010.37
2018-04-13T05:13:53.853Z,1010.46
2018-04-13T05:15:21.106Z,1010.46
2018-04-13T05:16:48.317Z,1010.42
2018-04-13T05:18:15.614Z,1010.38
2018-04-13T05:19:42.874Z,1010.46
2018-04-13T05:21:09.978Z,1010.50
2018-04-13T05:22:37.124Z,1010.58
2018-04-13T05:24:04.508Z,1010.62
2018-04-13T05:25:31.807Z,1010.62
2018-04-13T05:26:59.132Z,1010.62
2018-04-13T05:28:26.607Z,1010.58
2018-04-13T05:29:53.724Z,1010.60
2018-04-13T05:31:21.078Z,1010.63
2018-04-13T05:32:48.255Z,1010.62
2018-04-13T05:34:15.542Z,1010.61
2018-04-13T05:35:42.790Z,1010.64
2018-04-13T05:37:09.951Z,1010.60
2018-04-13T05:38:37.185Z,1010.58
2018-04-13T05:40:04.379Z,1010.57
2018-04-13T05:41:31.772Z,1010.56
2018-04-13T05:42:59.188Z,1010.64
2018-04-13T05:44:26.451Z,1010.62
2018-04-13T05:45:53.747Z,1010.69
2018-04-13T05:47:21.030Z,1010.68
2018-04-13T05:48:48.272Z,1010.71
2018-04-13T05:50:15.566Z,1010.72
2018-04-13T05:51:42.776Z,1010.76
2018-04-13T05:53:10.163Z,1010.76
2018-04-13T05:54:37.130Z,1010.81
2018-04-13T05:56:04.556Z,1010.79
2018-04-13T05:57:31.765Z,1010.79
2018-04-13T05:58:59.084Z,1010.83
2018-04-13T06:00:26.366Z,1010.84
2018-04-13T06:01:53.569Z,1010.87
2018-04-13T06:03:20.764Z,1010.86
2018-04-13T06:04:48.307Z,1010.90
2018-04-13T06:06:15.355Z,1010.92
2018-04-13T06:07:42.708Z,1010.94
2018-04-13T06:09:09.936Z,1010.96
2018-04-13T06:10:37.247Z,1010.99
2018-04-13T06:12:04.623Z,1011.02
2018-04-13T06:13:31.803Z,1011.08
2018-04-13T06:14:58.918Z,1011.05
2018-04-13T06:16:26.333Z,1011.07
2018-04-13T06:17:53.717Z,1011.09
2018-04-13T06:19:21.085Z,1011.08
2018-04-13T06:20:48.244Z,1011.10
2018-04-13T06:22:15.653Z,1011.13
2018-04-13T06:23:42.894Z,1011.07
2018-04-13T06:25:10.087Z,1011.02
2018-04-13T06:26:37.246Z,1011.07
2018-04-13T06:28:04.770Z,1011.07
2018-04-13T06:29:32.005Z,1011.03
2018-04-13T06:30:59.344Z,1011.07
2018-04-13T06:32:26.512Z,1011.06
2018-04-13T06:33:53.735Z,1011.11
2018-04-13T06:35:20.970Z,1011.04
2018-04-13T06:36:48.474Z,1011.03
2018-04-13T06:38:15.790Z,1011.02
2018-04-13T06:39:42.626Z,1011.01
2018-04-13T06:41:09.970Z,1011.01
2018-04-13T06:42:37.303Z,1011.04
2018-04-13T06:44:04.697Z,1011.08
2018-04-13T06:45:31.909Z,1011.12
2018-04-13T06:46:59.288Z,1011.06
2018-04-13T06:48:26.689Z,1011.07
2018-04-13T06:49:54.114Z,1011.16
2018-04-13T06:51:21.582Z,1011.13
2018-04-13T06:52:48.700Z,1010.90
2018-04-13T06:54:15.993Z,1010.93
2018-04-13T06:55:43.295Z,1010.99
2018-04-13T06:57:10.639Z,1010.90
2018-04-13T06:58:37.742Z,1010.94
2018-04-13T07:00:05.084Z,1010.93
2018-04-13T07:01:32.279Z,1011.01
2018-04-13T07:02:59.828Z,1011.13
2018-04-13T07:04:26.928Z,1011.09
2018-04-13T07:05:54.358Z,1011.05
2018-04-13T07:07:21.746Z,1011.04
2018-04-13T07:08:49.146Z,1011.05
2018-04-13T07:10:16.439Z,1011.14
2018-04-13T07:11:43.697Z,1011.09
2018-04-13T07:13:11.059Z,1011.13
2018-04-13T07:14:38.300Z,1011.09
2018-04-13T07:16:05.575Z,1011.21
2018-04-13T07:17:33.036Z,1011.26
2018-04-13T07:19:00.415Z,1011.27
2018-04-13T07:20:27.873Z,1011.33
2018-04-13T07:21:55.272Z,1011.26
2018-04-13T07:23:22.617Z,1011.24
2018-04-13T07:24:50.058Z,1011.14
2018-04-13T07:26:17.111Z,1011.12
2018-04-13T07:27:44.524Z,1011.08
2018-04-13T07:29:11.866Z,1011.04
2018-04-13T07:30:39.090Z,1010.99
2018-04-13T07:32:06.378Z,1010.92
2018-04-13T07:33:33.630Z,1010.88
2018-04-13T07:35:01.002Z,1010.78
2018-04-13T07:36:28.357Z,1010.77
2018-04-13T07:37:55.685Z,1010.76
2018-04-13T07:39:23.051Z,1010.84
2018-04-13T07:40:50.404Z,1010.79
2018-04-13T07:42:18.377Z,1010.81
2018-04-13T07:43:45.055Z,1010.85
2018-04-13T07:45:12.551Z,1010.88
2018-04-13T07:46:39.655Z,1010.91
2018-04-13T07:48:06.952Z,1010.96
2018-04-13T07:49:34.245Z,1010.95
2018-04-13T07:51:01.522Z,1010.96
2018-04-13T07:52:29.086Z,1010.91
2018-04-13T07:53:56.328Z,1010.93
2018-04-13T07:55:23.561Z,1011.01
2018-04-13T07:56:50.940Z,1011.13
2018-04-13T07:58:18.194Z,1011.04
2018-04-13T07:59:45.554Z,1011.18
2018-04-13T08:01:12.708Z,1011.20
2018-04-13T08:02:40.160Z,1011.11
2018-04-13T08:04:07.528Z,1011.19
2018-04-13T08:05:34.854Z,1011.19
2018-04-13T08:07:02.325Z,1011.18
2018-04-13T08:08:29.676Z,1011.04
2018-04-13T08:09:57.077Z,1011.04
2018-04-13T08:11:24.407Z,1011.03
2018-04-13T08:12:52.013Z,1011.13
2018-04-13T08:14:19.348Z,1011.14
2018-04-13T08:15:46.683Z,1011.05
2018-04-13T08:17:14.149Z,1011.00
2018-04-13T08:18:41.525Z,1010.99
2018-04-13T08:20:08.718Z,1011.00
2018-04-13T08:21:36.086Z,1011.08
2018-04-13T08:23:03.465Z,1010.99
2018-04-13T08:24:30.890Z,1011.03
2018-04-13T08:25:58.167Z,1010.96
2018-04-13T08:27:25.726Z,1010.91
2018-04-13T08:28:53.063Z,1010.88
2018-04-13T08:30:20.339Z,1010.87
2018-04-13T08:31:47.734Z,1010.94
2018-04-13T08:33:15.117Z,1010.96
2018-04-13T08:34:42.379Z,1011.05
2018-04-13T08:36:09.726Z,1011.00
2018-04-13T08:37:36.943Z,1011.05
2018-04-13T08:39:04.401Z,1011.03
2018-04-13T08:40:31.593Z,1010.96
2018-04-13T08:41:59.007Z,1010.93
2018-04-13T08:43:26.386Z,1010.89
2018-04-13T08:44:53.761Z,1010.86
2018-04-13T08:46:20.536Z,1010.73
2018-04-13T08:47:47.972Z,1010.80
2018-04-13T08:49:15.456Z,1010.85
2018-04-13T08:50:42.863Z,1010.74
2018-04-13T08:52:10.104Z,1010.61
2018-04-13T08:53:37.250Z,1010.50
2018-04-13T08:55:04.747Z,1010.55
2018-04-13T08:56:32.152Z,1010.64
2018-04-13T08:57:59.452Z,1010.68
2018-04-13T08:59:26.967Z,1010.65
2018-04-13T09:00:54.351Z,1010.76
2018-04-13T09:02:21.818Z,1010.71
2018-04-13T09:03:49.000Z,1010.76
2018-04-13T09:05:16.374Z,1010.75
2018-04-13T09:06:43.830Z,1010.74
2018-04-13T09:08:11.259Z,1010.84
2018-04-13T09:09:38.473Z,1010.88
2018-04-13T09:11:05.776Z,1010.89
2018-04-13T09:12:33.251Z,1010.91
2018-04-13T09:14:00.329Z,1010.99
2018-04-13T09:15:27.677Z,1011.05
2018-04-13T09:16:54.999Z,1011.03
2018-04-13T09:18:22.302Z,1011.04
2018-04-13T09:19:49.688Z,1011.03
2018-04-13T09:21:16.861Z,1011.06
2018-04-13T09:22:44.199Z,1011.13
2018-04-13T09:24:11.747Z,1011.07
2018-04-13T09:25:38.977Z,1011.01
2018-04-13T09:27:06.301Z,1011.07
2018-04-13T09:28:33.688Z,1011.07
2018-04-13T09:30:01.156Z,1010.98
2018-04-13T09:31:28.659Z,1011.00
2018-04-13T09:32:56.187Z,1011.02
2018-04-13T09:34:23.505Z,1011.00
2018-04-13T09:35:50.995Z,1011.05
2018-04-13T09:37:18.361Z,1011.09
2018-04-13T09:38:45.832Z,1011.20
2018-04-13T09:40:13.284Z,1011.39
2018-04-13T09:41:40.615Z,1011.64
2018-04-13T09:43:08.013Z,1011.63
2018-04-13T09:44:35.357Z,1011.63
2018-04-13T09:46:02.430Z,1011.74
2018-04-13T09:47:29.648Z,1011.67
2018-04-13T09:48:56.983Z,1011.67
2018-04-13T09:50:24.389Z,1011.62
2018-04-13T09:51:51.543Z,1011.58
2018-04-13T09:53:18.972Z,1011.54
2018-04-13T09:54:46.208Z,1011.49
2018-04-13T09:56:13.506Z,1011.52
2018-04-13T09:57:40.867Z,1011.48
2018-04-13T09:59:08.229Z,1011.47
2018-04-13T10:00:35.359Z,1011.42
2018-04-13T10:02:02.702Z,1011.42
2018-04-13T10:03:30.200Z,1011.34
2018-04-13T10:04:57.714Z,1011.33
2018-04-13T10:06:24.788Z,1011.32
2018-04-13T10:07:52.451Z,1011.32
2018-04-13T10:09:19.746Z,1011.27
2018-04-13T10:10:47.228Z,1011.27
2018-04-13T10:12:14.562Z,1011.25
2018-04-13T10:13:41.876Z,1011.30
2018-04-13T10:15:09.206Z,1011.29
2018-04-13T10:16:36.654Z,1011.33
2018-04-13T10:18:04.060Z,1011.29
2018-04-13T10:19:31.738Z,1011.33
2018-04-13T10:20:59.184Z,1011.35
2018-04-13T10:22:26.582Z,1011.33
2018-04-13T10:23:54.027Z,1011.35
2018-04-13T10:25:21.325Z,1011.29
2018-04-13T10:26:48.591Z,1011.29
2018-04-13T10:28:15.964Z,1011.32
2018-04-13T10:29:43.357Z,1011.27
2018-04-13T10:31:10.753Z,1011.29
2018-04-13T10:32:38.097Z,1011.26
2018-04-13T10:34:05.552Z,1011.26
2018-04-13T10:35:32.952Z,1011.26
2018-04-13T10:37:00.368Z,1011.24
2018-04-13T10:38:28.735Z,1011.23
2018-04-13T10:39:55.199Z,1011.25
2018-04-13T10:41:22.671Z,1011.27
2018-04-13T10:42:50.260Z,1011.28
2018-04-13T10:44:17.594Z,1011.24
2018-04-13T10:45:44.985Z,1011.27
2018-04-13T10:47:12.562Z,1011.29
2018-04-13T10:48:39.914Z,1011.25
2018-04-13T10:50:07.509Z,1011.26
2018-04-13T10:51:35.051Z,1011.27
2018-04-13T10:53:02.414Z,1011.29
2018-04-13T10:54:29.953Z,1011.25
2018-04-13T10:55:57.406Z,1011.18
2018-04-13T10:57:24.908Z,1011.17
2018-04-13T10:58:52.270Z,1011.15
2018-04-13T11:00:19.728Z,1011.13
2018-04-13T11:01:47.154Z,1011.18
2018-04-13T11:03:14.689Z,1011.22
2018-04-13T11:04:42.089Z,1011.20
2018-04-13T11:06:09.723Z,1011.17
2018-04-13T11:07:37.233Z,1011.12
2018-04-13T11:09:04.841Z,1011.07
2018-04-13T11:10:32.185Z,1011.04
2018-04-13T11:11:59.736Z,1011.03
2018-04-13T11:13:26.822Z,1011.00
2018-04-13T11:14:54.227Z,1010.98
2018-04-13T11:16:21.885Z,1011.03
2018-04-13T11:17:49.372Z,1011.06
2018-04-13T11:19:16.822Z,1011.02
2018-04-13T11:20:44.419Z,1011.02
2018-04-13T11:22:11.767Z,1011.03
2018-04-13T11:23:39.198Z,1011.03
2018-04-13T11:25:06.733Z,1010.99
2018-04-13T11:26:34.374Z,1010.97
2018-04-13T11:28:01.773Z,1010.94
2018-04-13T11:29:29.276Z,1010.93
2018-04-13T11:30:56.546Z,1010.87
2018-04-13T11:32:24.242Z,1010.86
2018-04-13T11:33:51.656Z,1010.85
2018-04-13T11:35:19.147Z,1010.91
2018-04-13T11:36:46.702Z,1010.90
2018-04-13T11:38:14.118Z,1010.85
2018-04-13T11:39:41.577Z,1010.81
2018-04-13T11:41:09.044Z,1010.79
2018-04-13T11:42:36.515Z,1010.80
2018-04-13T11:44:04.070Z,1010.79
2018-04-13T11:45:31.697Z,1010.80
2018-04-13T11:46:59.076Z,1010.76
2018-04-13T11:48:26.686Z,1010.75
2018-04-13T11:49:54.064Z,1010.74
2018-04-13T11:51:21.485Z,1010.69
2018-04-13T11:52:48.977Z,1010.70
2018-04-13T11:54:16.512Z,1010.72
2018-04-13T11:55:43.798Z,1010.72
2018-04-13T11:57:11.263Z,1010.70
2018-04-13T11:58:38.629Z,1010.72
2018-04-13T12:00:06.243Z,1010.73
2018-04-13T12:01:33.772Z,1010.74
2018-04-13T12:03:01.311Z,1010.74
2018-04-13T12:04:28.863Z,1010.74
2018-04-13T12:05:56.481Z,1010.79
2018-04-13T12:07:23.853Z,1010.80
2018-04-13T12:08:51.252Z,1010.82
2018-04-13T12:10:18.849Z,1010.83
2018-04-13T12:11:46.255Z,1010.84
2018-04-13T12:13:13.630Z,1010.85
2018-04-13T12:14:40.962Z,1010.86
2018-04-13T12:16:08.501Z,1010.87
2018-04-13T12:17:35.904Z,1010.90
2018-04-13T12:19:03.388Z,1010.91
2018-04-13T12:20:31.056Z,1010.93
2018-04-13T12:21:58.504Z,1010.93
2018-04-13T12:23:25.986Z,1010.99
2018-04-13T12:24:53.524Z,1011.00
2018-04-13T12:26:20.940Z,1011.02
2018-04-13T12:27:48.519Z,1011.09
2018-04-13T12:29:15.875Z,1011.10
2018-04-13T12:30:43.551Z,1011.11
2018-04-13T12:32:10.900Z,1011.11
2018-04-13T12:33:38.250Z,1011.14
2018-04-13T12:35:05.698Z,1011.13
2018-04-13T12:36:33.212Z,1011.20
2018-04-13T12:38:00.710Z,1011.22
2018-04-13T12:39:28.210Z,1011.23
2018-04-13T12:40:55.668Z,1011.25
2018-04-13T12:42:23.067Z,1011.28
2018-04-13T12:43:50.690Z,1011.30
2018-04-13T12:45:18.024Z,1011.32
2018-04-13T12:46:45.471Z,1011.32
2018-04-13T12:48:13.016Z,1011.36
2018-04-13T12:49:40.321Z,1011.37
2018-04-13T12:51:07.577Z,1011.37
2018-04-13T12:52:37.991Z,1011.38
2018-04-13T12:54:02.390Z,1011.38
2018-04-13T12:55:29.928Z,1011.31
2018-04-13T12:56:57.284Z,1011.28
2018-04-13T12:58:24.678Z,1011.28
2018-04-13T12:59:52.158Z,1011.29
2018-04-13T13:01:19.414Z,1011.26
2018-04-13T13:02:46.712Z,1011.27
2018-04-13T13:04:14.215Z,1011.29
2018-04-13T13:05:41.763Z,1011.30
2018-04-13T13:07:09.271Z,1011.33
2018-04-13T13:08:36.923Z,1011.36
2018-04-13T13:10:04.381Z,1011.35
2018-04-13T13:11:31.955Z,1011.32
2018-04-13T13:12:59.304Z,1011.31
2018-04-13T13:14:26.513Z,1011.32
2018-04-13T13:15:54.209Z,1011.34
2018-04-13T13:17:21.726Z,1011.33
2018-04-13T13:18:49.243Z,1011.33
2018-04-13T13:20:16.623Z,1011.34
2018-04-13T13:21:44.025Z,1011.33
2018-04-13T13:23:11.258Z,1011.33
2018-04-13T13:24:38.395Z,1011.32
2018-04-13T13:26:05.805Z,1011.33
2018-04-13T13:27:33.016Z,1011.38
2018-04-13T13:29:00.563Z,1011.40
2018-04-13T13:30:27.882Z,1011.38
2018-04-13T13:31:55.092Z,1011.39
2018-04-13T13:33:22.560Z,1011.36
2018-04-13T13:34:50.025Z,1011.38
2018-04-13T13:36:17.448Z,1011.38
2018-04-13T13:37:44.585Z,1011.41
2018-04-13T13:39:12.031Z,1011.41
2018-04-13T13:40:39.469Z,1011.44
2018-04-13T13:42:06.705Z,1011.44
2018-04-13T13:43:34.156Z,1011.42
2018-04-13T13:45:01.608Z,1011.42
2018-04-13T13:46:29.188Z,1011.44
2018-04-13T13:47:56.672Z,1011.43
2018-04-13T13:49:24.128Z,1011.45
2018-04-13T13:50:51.586Z,1011.47
2018-04-13T13:52:19.000Z,1011.50
2018-04-13T13:53:46.447Z,1011.52
2018-04-13T13:55:13.871Z,1011.55
2018-04-13T13:56:41.369Z,1011.58
2018-04-13T13:58:08.716Z,1011.59
2018-04-13T13:59:36.367Z,1011.57
2018-04-13T14:01:03.761Z,1011.53
2018-04-13T14:02:31.031Z,1011.49
2018-04-13T14:03:58.363Z,1011.45
2018-04-13T14:05:25.858Z,1011.42
2018-04-13T14:06:53.221Z,1011.43
2018-04-13T14:08:20.626Z,1011.45
2018-04-13T14:09:48.043Z,1011.43
2018-04-13T14:11:15.230Z,1011.41
2018-04-13T14:12:39.764Z,1011.47
2018-04-13T14:14:10.189Z,1011.47
2018-04-13T14:15:37.496Z,1011.48
2018-04-13T14:17:05.100Z,1011.47
2018-04-13T14:18:32.562Z,1011.46
2018-04-13T14:19:59.937Z,1011.50
2018-04-13T14:21:27.551Z,1011.49
2018-04-13T14:22:54.684Z,1011.47
2018-04-13T14:24:22.088Z,1011.48
2018-04-13T14:25:49.710Z,1011.47
2018-04-13T14:27:16.932Z,1011.44
2018-04-13T14:28:44.378Z,1011.39
2018-04-13T14:30:11.725Z,1011.37
2018-04-13T14:31:39.043Z,1011.33
2018-04-13T14:33:06.636Z,1011.31
2018-04-13T14:34:34.118Z,1011.32
2018-04-13T14:36:01.620Z,1011.31
2018-04-13T14:37:28.860Z,1011.32
2018-04-13T14:38:56.321Z,1011.33
2018-04-13T14:40:23.650Z,1011.28
2018-04-13T14:41:50.988Z,1011.30
2018-04-13T14:43:18.115Z,1011.26
2018-04-13T14:44:45.364Z,1011.25
2018-04-13T14:46:12.747Z,1011.20
2018-04-13T14:47:40.180Z,1011.22
2018-04-13T14:49:07.399Z,1011.25
2018-04-13T14:50:34.991Z,1011.25
2018-04-13T14:52:02.692Z,1011.20
2018-04-13T14:53:29.965Z,1011.19
2018-04-13T14:54:57.407Z,1011.12
2018-04-13T14:56:24.784Z,1011.01
2018-04-13T14:57:52.341Z,1010.98
2018-04-13T14:59:19.734Z,1010.99
2018-04-13T15:00:47.283Z,1010.96
2018-04-13T15:02:14.767Z,1010.94
2018-04-13T15:03:41.944Z,1010.95
2018-04-13T15:05:09.317Z,1010.92
2018-04-13T15:06:36.732Z,1010.95
2018-04-13T15:08:03.967Z,1010.93
2018-04-13T15:09:31.172Z,1010.91
2018-04-13T15:10:58.621Z,1010.86
2018-04-13T15:12:26.001Z,1010.84
2018-04-13T15:13:53.284Z,1010.83
2018-04-13T15:15:20.597Z,1010.83
2018-04-13T15:16:48.090Z,1010.82
2018-04-13T15:18:15.755Z,1010.85
2018-04-13T15:19:43.136Z,1010.85
2018-04-13T15:21:10.350Z,1010.89
2018-04-13T15:22:37.507Z,1010.87
2018-04-13T15:24:05.105Z,1010.81
2018-04-13T15:25:32.422Z,1010.81
2018-04-13T15:26:59.620Z,1010.81
2018-04-13T15:28:27.152Z,1010.77
2018-04-13T15:29:54.697Z,1010.72
2018-04-13T15:31:21.915Z,1010.63
2018-04-13T15:32:49.337Z,1010.61
2018-04-13T15:34:16.678Z,1010.57
2018-04-13T15:35:44.140Z,1010.62
2018-04-13T15:37:11.615Z,1010.64
2018-04-13T15:38:38.795Z,1010.73
2018-04-13T15:40:05.981Z,1010.72
2018-04-13T15:41:33.539Z,1010.74
2018-04-13T15:43:00.954Z,1010.61
2018-04-13T15:44:28.117Z,1010.51
2018-04-13T15:45:55.530Z,1010.54
2018-04-13T15:47:22.826Z,1010.54
2018-04-13T15:48:50.307Z,1010.59
2018-04-13T15:50:17.637Z,1010.62
2018-04-13T15:51:45.024Z,1010.66
2018-04-13T15:53:12.461Z,1010.64
2018-04-13T15:54:39.779Z,1010.68
2018-04-13T15:56:07.224Z,1010.69
2018-04-13T15:57:34.549Z,1010.68
2018-04-13T15:59:02.005Z,1010.70
2018-04-13T16:00:29.369Z,1010.67
2018-04-13T16:01:56.778Z,1010.65
2018-04-13T16:03:24.333Z,1010.70
2018-04-13T16:04:51.780Z,1010.69
2018-04-13T16:06:19.179Z,1010.75
2018-04-13T16:07:46.720Z,1010.75
2018-04-13T16:09:14.084Z,1010.77
2018-04-13T16:10:41.383Z,1010.82
2018-04-13T16:12:08.741Z,1010.79
2018-04-13T16:13:36.219Z,1010.79
2018-04-13T16:15:03.752Z,1010.82
2018-04-13T16:16:30.969Z,1010.86
2018-04-13T16:17:58.350Z,1010.82
2018-04-13T16:19:25.597Z,1010.82
2018-04-13T16:20:53.005Z,1010.88
2018-04-13T16:22:20.344Z,1010.86
2018-04-13T16:23:47.636Z,1010.86
2018-04-13T16:25:15.012Z,1010.92
2018-04-13T16:26:42.474Z,1010.96
2018-04-13T16:28:09.714Z,1010.96
2018-04-13T16:29:36.878Z,1010.90
2018-04-13T16:31:04.370Z,1010.91
2018-04-13T16:32:31.908Z,1011.04
2018-04-13T16:33:59.348Z,1011.03
2018-04-13T16:35:26.975Z,1010.97
2018-04-13T16:36:54.310Z,1011.07
2018-04-13T16:38:21.713Z,1010.99
2018-04-13T16:39:49.225Z,1010.99
2018-04-13T16:41:16.536Z,1010.99
2018-04-13T16:42:44.002Z,1011.07
2018-04-13T16:44:11.361Z,1011.02
2018-04-13T16:45:38.674Z,1010.95
2018-04-13T16:47:06.153Z,1010.96
2018-04-13T16:48:33.642Z,1010.98
2018-04-13T16:50:01.019Z,1011.00
2018-04-13T16:51:28.536Z,1011.04
2018-04-13T16:52:55.845Z,1011.11
2018-04-13T16:54:23.143Z,1011.09
2018-04-13T16:55:50.499Z,1011.07
2018-04-13T16:57:17.872Z,1011.05
2018-04-13T16:58:45.425Z,1011.05
2018-04-13T17:00:12.648Z,1011.08
2018-04-13T17:01:40.184Z,1011.06
2018-04-13T17:03:07.621Z,1011.13
2018-04-13T17:04:35.244Z,1011.22
2018-04-13T17:06:02.638Z,1011.29
2018-04-13T17:07:30.178Z,1011.34
2018-04-13T17:08:57.844Z,1011.32
2018-04-13T17:10:25.133Z,1011.44
2018-04-13T17:11:52.456Z,1011.40
2018-04-13T17:13:19.984Z,1011.32
2018-04-13T17:14:47.384Z,1011.34
2018-04-13T17:16:14.840Z,1011.27
2018-04-13T17:17:42.130Z,1011.29
2018-04-13T17:19:09.368Z,1011.30
2018-04-13T17:20:36.785Z,1011.30
2018-04-13T17:22:04.238Z,1011.27
2018-04-13T17:23:31.492Z,1011.28
2018-04-13T17:24:58.839Z,1011.34
2018-04-13T17:26:26.240Z,1011.30
2018-04-13T17:27:53.528Z,1011.34
2018-04-13T17:29:21.124Z,1011.37
2018-04-13T17:30:48.247Z,1011.47
2018-04-13T17:32:15.665Z,1011.43
2018-04-13T17:33:42.960Z,1011.41
2018-04-13T17:35:10.413Z,1011.41
2018-04-13T17:36:37.736Z,1011.40